Time;durP1;ratioP1;P1;durP2;ratioP2;P2;SDS_P1;SDS_P2;PMS_P1;PMS_P2;Temp;Humidity;BMP_temperature;BMP_pressure;BME280_temperature;BME280_humidity;BME280_pressure;Samples;Min_cycle;Max_cycle;Signal;HPM_P1;HPM_P2
2022/06/27 00:00:21;;;;;;;1999.90;999.90;;;20.30;90.30;;;;;;5060810;28;20044;-87
2022/06/27 00:02:46;;;;;;;1999.90;999.90;;;20.30;90.70;;;;;;5102873;28;20035;-86
2022/06/27 00:05:12;;;;;;;1999.90;999.90;;;20.20;91.10;;;;;;5097760;28;20035;-88
2022/06/27 00:07:39;;;;;;;1999.90;999.90;;;20.20;91.50;;;;;;5074227;28;20278;-86
2022/06/27 00:10:05;;;;;;;1999.90;999.90;;;20.30;91.20;;;;;;5082413;28;20024;-86
2022/06/27 00:12:31;;;;;;;1999.90;999.90;;;20.30;90.20;;;;;;5098602;28;20034;-86
2022/06/27 00:14:58;;;;;;;1999.90;999.90;;;20.40;89.20;;;;;;5076386;28;20036;-86
2022/06/27 00:17:23;;;;;;;1999.90;999.90;;;20.40;90.60;;;;;;5090086;28;20028;-86
2022/06/27 00:19:49;;;;;;;1999.90;999.90;;;20.50;90.10;;;;;;5057719;28;20557;-86
2022/06/27 00:22:15;;;;;;;1999.90;999.90;;;20.50;90.20;;;;;;5096565;28;20521;-86
2022/06/27 00:24:41;;;;;;;1999.90;999.90;;;20.50;90.20;;;;;;5089951;28;20621;-86
2022/06/27 00:27:06;;;;;;;1999.90;999.90;;;20.60;88.20;;;;;;5084017;28;20051;-88
2022/06/27 00:29:32;;;;;;;1999.90;999.90;;;20.60;89.30;;;;;;5087362;28;20036;-86
2022/06/27 00:31:58;;;;;;;1999.90;999.90;;;20.60;90.00;;;;;;5086140;28;20406;-86
2022/06/27 00:34:23;;;;;;;1999.90;999.90;;;20.50;90.20;;;;;;5094760;28;20492;-87
2022/06/27 00:36:49;;;;;;;1012.38;409.95;;;20.30;91.20;;;;;;5074024;28;20032;-85
2022/06/27 00:39:15;;;;;;;1084.07;660.53;;;19.80;93.50;;;;;;5093924;28;20042;-89
2022/06/27 00:41:41;;;;;;;1102.43;514.60;;;19.70;95.50;;;;;;5077055;28;20067;-86
2022/06/27 00:44:06;;;;;;;1260.90;760.78;;;19.60;96.80;;;;;;5079862;28;20027;-85
2022/06/27 00:46:32;;;;;;;1561.85;605.97;;;19.50;98.90;;;;;;5079077;28;20043;-86
2022/06/27 00:48:58;;;;;;;1838.57;663.83;;;19.30;99.90;;;;;;5066092;28;20107;-84
2022/06/27 00:51:24;;;;;;;982.38;196.70;;;18.90;99.90;;;;;;5089019;28;20143;-86
2022/06/27 00:53:54;;;;;;;1369.32;544.00;;;18.50;99.90;;;;;;5072047;28;20032;-87
2022/06/27 00:56:21;;;;;;;1999.90;999.90;;;17.70;99.90;;;;;;5070441;28;20032;-87
2022/06/27 00:58:46;;;;;;;1999.90;999.90;;;17.50;99.90;;;;;;5088406;28;20503;-87
2022/06/27 01:01:12;;;;;;;1999.90;806.53;;;17.30;99.90;;;;;;5102604;28;20051;-85
2022/06/27 01:03:38;;;;;;;1999.90;724.90;;;17.20;99.90;;;;;;5082578;28;20028;-94
2022/06/27 01:06:04;;;;;;;1898.20;658.67;;;17.20;99.90;;;;;;5083516;28;20028;-85
2022/06/27 01:08:31;;;;;;;1999.90;999.90;;;17.10;99.90;;;;;;5098553;28;20116;-86
2022/06/27 01:10:56;;;;;;;1999.90;999.90;;;17.00;99.90;;;;;;5067702;28;20062;-86
2022/06/27 01:13:23;;;;;;;1999.90;861.50;;;17.00;99.90;;;;;;5080482;28;20060;-87
2022/06/27 01:15:49;;;;;;;1999.90;999.90;;;17.00;99.90;;;;;;5086305;28;20044;-88
2022/06/27 01:18:16;;;;;;;1999.90;999.90;;;17.00;99.90;;;;;;5094150;28;20552;-87
2022/06/27 01:20:43;;;;;;;1999.90;999.90;;;17.00;99.90;;;;;;5078751;28;20086;-87
2022/06/27 01:23:08;;;;;;;1999.90;999.90;;;16.90;99.90;;;;;;5072976;28;20027;-87
2022/06/27 01:25:36;;;;;;;1999.90;999.90;;;16.90;99.90;;;;;;5072260;28;20028;-88
2022/06/27 01:28:07;;;;;;;1999.90;999.90;;;16.90;99.90;;;;;;5072201;28;20394;-88
2022/06/27 01:30:33;;;;;;;1999.90;999.90;;;17.00;99.90;;;;;;5087936;28;20541;-87
2022/06/27 01:32:59;;;;;;;1999.90;999.90;;;16.90;99.90;;;;;;5102974;28;20063;-86
2022/06/27 01:35:24;;;;;;;1999.90;999.90;;;16.90;99.90;;;;;;5066828;28;20032;-86
2022/06/27 01:37:50;;;;;;;1999.90;999.90;;;16.90;99.90;;;;;;5102574;28;20482;-87
2022/06/27 01:40:16;;;;;;;1999.90;999.90;;;16.90;99.90;;;;;;5097226;28;20078;-87
2022/06/27 01:42:43;;;;;;;1999.90;999.90;;;17.00;99.90;;;;;;5103073;28;20683;-87
2022/06/27 01:45:09;;;;;;;1999.90;999.90;;;16.90;99.90;;;;;;5099284;28;20123;-87
2022/06/27 01:47:35;;;;;;;1999.90;999.90;;;16.80;99.90;;;;;;5100855;28;20036;-87
2022/06/27 01:50:00;;;;;;;1999.90;999.90;;;16.90;99.90;;;;;;5076683;28;20051;-88
2022/06/27 01:52:28;;;;;;;1999.90;999.90;;;16.90;99.90;;;;;;5081931;28;20070;-87
2022/06/27 01:54:54;;;;;;;1999.90;999.90;;;17.00;99.90;;;;;;5090691;28;20024;-87
2022/06/27 01:57:22;;;;;;;1999.90;999.90;;;17.00;99.90;;;;;;5092167;28;20036;-87
2022/06/27 01:59:50;;;;;;;1999.90;999.90;;;17.00;99.90;;;;;;5101357;28;20077;-87
2022/06/27 02:02:16;;;;;;;1999.90;999.90;;;17.00;99.90;;;;;;5103042;28;20054;-88
2022/06/27 02:04:42;;;;;;;1999.90;999.90;;;17.00;99.90;;;;;;5076244;28;20012;-86
2022/06/27 02:07:08;;;;;;;1999.90;999.90;;;17.00;99.90;;;;;;5081764;28;20050;-86
2022/06/27 02:09:34;;;;;;;1999.90;999.90;;;17.00;99.90;;;;;;5096350;28;20548;-87
2022/06/27 02:12:18;;;;;;;1999.90;999.90;;;17.00;99.90;;;;;;5100993;28;20031;-87
2022/06/27 02:14:53;;;;;;;1999.90;999.90;;;17.00;99.90;;;;;;5096093;28;20028;-87
2022/06/27 02:17:20;;;;;;;1999.90;999.90;;;16.90;99.90;;;;;;5061591;28;20074;-87
2022/06/27 02:19:46;;;;;;;1999.90;999.90;;;17.00;99.90;;;;;;5084259;28;20044;-88
2022/06/27 02:22:13;;;;;;;1999.90;999.90;;;17.00;99.90;;;;;;5085357;28;20483;-87
2022/06/27 02:24:39;;;;;;;1999.90;999.90;;;17.00;99.90;;;;;;5092171;28;20024;-88
2022/06/27 02:27:07;;;;;;;1999.90;999.90;;;17.00;99.90;;;;;;5072811;28;20540;-87
2022/06/27 02:29:33;;;;;;;1999.90;999.90;;;16.90;99.90;;;;;;5062747;28;20091;-87
2022/06/27 02:32:00;;;;;;;1999.90;999.90;;;16.70;99.90;;;;;;5075472;28;20036;-88
2022/06/27 02:34:28;;;;;;;1999.90;999.90;;;16.70;99.90;;;;;;5093633;28;20573;-87
2022/06/27 02:36:55;;;;;;;1999.90;999.90;;;16.60;99.90;;;;;;5097797;28;20035;-87
2022/06/27 02:39:26;;;;;;;1999.90;999.90;;;16.50;99.90;;;;;;5097322;28;20038;-86
2022/06/27 02:41:55;;;;;;;1999.90;999.90;;;16.40;99.90;;;;;;5081442;28;20034;-90
2022/06/27 02:44:22;;;;;;;1999.90;999.90;;;16.20;99.90;;;;;;5095095;28;20097;-86
2022/06/27 02:46:49;;;;;;;1999.90;999.90;;;16.20;99.90;;;;;;5072347;28;20139;-87
2022/06/27 02:49:15;;;;;;;1999.90;999.90;;;16.20;99.90;;;;;;5098228;28;20031;-87
2022/06/27 02:51:43;;;;;;;1999.90;999.90;;;16.20;99.90;;;;;;5074660;28;20019;-87
2022/06/27 02:54:16;;;;;;;1999.90;999.90;;;16.20;99.90;;;;;;5086841;28;20055;-86
2022/06/27 02:57:04;;;;;;;1999.90;999.90;;;16.20;99.90;;;;;;5093568;28;20069;-87
2022/06/27 02:59:37;;;;;;;1999.90;999.90;;;16.20;99.90;;;;;;5061790;28;20062;-88
2022/06/27 03:02:07;;;;;;;1999.90;999.90;;;16.20;99.90;;;;;;5085539;28;20036;-87
2022/06/27 03:04:33;;;;;;;1999.90;999.90;;;16.00;99.90;;;;;;5098840;28;20032;-87
2022/06/27 03:06:58;;;;;;;1999.90;999.90;;;16.00;99.90;;;;;;5103235;28;20308;-86
2022/06/27 03:09:24;;;;;;;1999.90;999.90;;;16.00;99.90;;;;;;5082050;28;20047;-88
2022/06/27 03:11:49;;;;;;;1999.90;999.90;;;16.00;99.90;;;;;;5078922;28;20777;-87
2022/06/27 03:14:15;;;;;;;1999.90;999.90;;;16.00;99.90;;;;;;5096412;28;20107;-87
2022/06/27 03:16:42;;;;;;;1999.90;999.90;;;15.90;99.90;;;;;;5073812;28;20028;-86
2022/06/27 03:19:08;;;;;;;1999.90;999.90;;;15.90;99.90;;;;;;5094244;28;20043;-87
2022/06/27 03:21:33;;;;;;;1999.90;999.90;;;15.90;99.90;;;;;;5088022;28;20025;-88
2022/06/27 03:24:00;;;;;;;1999.90;999.90;;;16.10;99.90;;;;;;5062232;28;20024;-87
2022/06/27 03:26:26;;;;;;;1999.90;999.90;;;16.10;99.90;;;;;;5074748;28;20495;-87
2022/06/27 03:28:52;;;;;;;1999.90;999.90;;;16.00;99.90;;;;;;5092659;28;20114;-87
2022/06/27 03:31:18;;;;;;;1999.90;999.90;;;16.00;99.90;;;;;;5067794;28;20120;-87
2022/06/27 03:33:43;;;;;;;1999.90;999.90;;;15.90;99.90;;;;;;5075203;28;20419;-88
2022/06/27 03:36:10;;;;;;;1999.90;999.90;;;15.90;99.90;;;;;;5095775;28;20110;-87
2022/06/27 03:38:36;;;;;;;1999.90;999.90;;;15.90;99.90;;;;;;5081134;28;20064;-87
2022/06/27 03:41:02;;;;;;;1999.90;999.90;;;16.00;99.90;;;;;;5079799;28;20036;-87
2022/06/27 03:43:28;;;;;;;1999.90;999.90;;;16.00;99.90;;;;;;5098878;28;20024;-87
2022/06/27 03:45:54;;;;;;;1999.90;999.90;;;15.90;99.90;;;;;;5090675;28;20153;-88
2022/06/27 03:51:05;;;;;;;1999.90;999.90;;;15.80;99.90;;;;;;5085641;28;20075;-87
2022/06/27 03:53:31;;;;;;;1999.90;999.90;;;15.90;99.90;;;;;;5081140;28;20043;-89
2022/06/27 03:55:57;;;;;;;1999.90;999.90;;;15.90;99.90;;;;;;5088870;28;20032;-87
2022/06/27 03:58:23;;;;;;;1999.90;999.90;;;15.90;99.90;;;;;;5094971;28;20114;-87
2022/06/27 04:00:48;;;;;;;1999.90;999.90;;;15.90;99.90;;;;;;5101980;28;20036;-87
2022/06/27 04:03:14;;;;;;;1999.90;999.90;;;15.90;99.90;;;;;;5087658;28;20518;-86
2022/06/27 04:05:40;;;;;;;1999.90;999.90;;;15.90;99.90;;;;;;5060683;28;20509;-89
2022/06/27 04:08:06;;;;;;;1999.90;999.90;;;16.00;99.90;;;;;;5100115;28;20036;-87
2022/06/27 04:10:31;;;;;;;1999.90;999.90;;;16.00;99.90;;;;;;5080278;28;20123;-88
2022/06/27 04:12:57;;;;;;;1999.90;999.90;;;16.10;99.90;;;;;;5064470;28;20035;-87
2022/06/27 04:15:23;;;;;;;1999.90;999.90;;;16.10;99.90;;;;;;5075925;28;20495;-86
2022/06/27 04:17:48;;;;;;;1999.90;999.90;;;16.20;99.90;;;;;;5072810;28;20067;-90
2022/06/27 04:20:14;;;;;;;1999.90;999.90;;;16.30;99.90;;;;;;5090223;28;20039;-87
2022/06/27 04:22:39;;;;;;;1999.90;999.90;;;16.30;99.90;;;;;;5067018;28;20777;-87
2022/06/27 04:25:06;;;;;;;1999.90;999.90;;;16.40;99.90;;;;;;5070466;28;20109;-87
2022/06/27 04:27:31;;;;;;;1999.90;999.90;;;16.50;99.90;;;;;;5071266;28;20035;-87
2022/06/27 04:29:57;;;;;;;1999.90;999.90;;;16.50;99.90;;;;;;5080698;28;20020;-88
2022/06/27 04:32:25;;;;;;;1999.90;999.90;;;16.60;99.90;;;;;;5100396;28;20046;-87
2022/06/27 04:34:51;;;;;;;1999.90;999.90;;;16.60;99.90;;;;;;5084927;28;20028;-87
2022/06/27 04:37:17;;;;;;;1999.90;999.90;;;16.70;99.90;;;;;;5102777;28;20032;-86
2022/06/27 04:39:43;;;;;;;1999.90;999.90;;;16.70;99.90;;;;;;5083181;28;20495;-89
2022/06/27 04:42:09;;;;;;;1999.90;999.90;;;16.70;99.90;;;;;;5097680;28;20039;-87
2022/06/27 04:44:42;;;;;;;1999.90;999.90;;;16.80;99.90;;;;;;5098241;28;20113;-88
2022/06/27 04:47:09;;;;;;;1999.90;999.90;;;16.80;99.90;;;;;;5061356;28;20165;-87
2022/06/27 04:49:36;;;;;;;1999.90;999.90;;;16.80;99.90;;;;;;5096348;28;20032;-87
2022/06/27 04:52:03;;;;;;;1999.90;999.90;;;17.00;99.90;;;;;;5089100;28;20027;-88
2022/06/27 04:54:29;;;;;;;1999.90;999.90;;;17.10;99.90;;;;;;5076509;28;20043;-86
2022/06/27 04:56:54;;;;;;;1999.90;999.90;;;17.20;99.90;;;;;;5093816;28;20438;-87
2022/06/27 04:59:21;;;;;;;1999.90;999.90;;;17.20;99.90;;;;;;5103097;28;20026;-86
2022/06/27 05:01:50;;;;;;;1999.90;999.90;;;17.20;99.90;;;;;;5087836;28;20113;-87
2022/06/27 05:04:17;;;;;;;1999.90;999.90;;;17.20;99.90;;;;;;5092805;28;20016;-87
2022/06/27 05:06:43;;;;;;;1999.90;999.90;;;17.40;99.90;;;;;;5096256;28;20028;-85
2022/06/27 05:09:09;;;;;;;1999.90;999.90;;;17.30;99.90;;;;;;5076415;28;20063;-86
2022/06/27 05:11:35;;;;;;;1999.90;999.90;;;17.30;99.90;;;;;;5100564;28;20064;-86
2022/06/27 05:14:00;;;;;;;1999.90;999.90;;;17.30;99.90;;;;;;5062341;28;20032;-85
2022/06/27 05:16:26;;;;;;;1999.90;999.90;;;17.30;99.90;;;;;;5094034;28;20197;-90
2022/06/27 05:18:52;;;;;;;1999.90;999.90;;;17.50;99.90;;;;;;5040827;28;20024;-85
2022/06/27 05:21:17;;;;;;;1999.90;999.90;;;17.70;99.90;;;;;;5075365;28;20028;-88
2022/06/27 05:23:43;;;;;;;1999.90;999.90;;;17.90;99.90;;;;;;5054591;28;20399;-87
2022/06/27 05:26:09;;;;;;;1999.90;999.90;;;17.80;99.90;;;;;;5093612;28;20507;-88
2022/06/27 05:28:35;;;;;;;1999.90;999.90;;;17.70;99.90;;;;;;5084929;28;20031;-89
2022/06/27 05:31:00;;;;;;;1999.90;999.90;;;17.90;99.90;;;;;;5103802;28;20032;-88
2022/06/27 05:33:26;;;;;;;1999.90;999.90;;;18.00;99.90;;;;;;5079428;28;20051;-87
2022/06/27 05:35:52;;;;;;;1999.90;999.90;;;17.90;99.90;;;;;;5096679;28;20035;-84
2022/06/27 05:38:18;;;;;;;1999.90;999.90;;;18.10;99.90;;;;;;5095574;28;20536;-86
2022/06/27 05:40:45;;;;;;;1999.90;999.90;;;18.00;99.90;;;;;;5065775;28;20023;-88
2022/06/27 05:43:12;;;;;;;1999.90;999.90;;;18.20;99.90;;;;;;5098434;28;20038;-86
2022/06/27 05:45:39;;;;;;;1999.90;999.90;;;18.30;99.90;;;;;;5074541;28;20051;-87
2022/06/27 05:48:06;;;;;;;1999.90;999.90;;;18.30;99.90;;;;;;5092710;28;20052;-87
2022/06/27 05:50:32;;;;;;;1999.90;999.90;;;18.30;99.90;;;;;;5097540;28;20023;-85
2022/06/27 05:52:59;;;;;;;1999.90;999.90;;;18.30;99.90;;;;;;5088035;28;20509;-86
2022/06/27 05:55:28;;;;;;;1999.90;999.90;;;18.40;99.90;;;;;;5094653;28;20092;-86
2022/06/27 05:57:58;;;;;;;1999.90;999.90;;;18.50;99.90;;;;;;5076823;28;20052;-86
2022/06/27 06:00:24;;;;;;;1999.90;999.90;;;18.60;99.90;;;;;;5105634;28;20039;-87
2022/06/27 06:02:51;;;;;;;1999.90;999.90;;;18.70;99.90;;;;;;5087654;28;20528;-90
2022/06/27 06:05:17;;;;;;;1999.90;999.90;;;18.60;99.90;;;;;;5101184;28;20040;-86
2022/06/27 06:07:43;;;;;;;1999.90;999.90;;;18.80;99.90;;;;;;5082646;28;20027;-86
2022/06/27 06:10:10;;;;;;;1999.90;999.90;;;18.80;99.90;;;;;;5083233;28;20024;-89
2022/06/27 06:12:36;;;;;;;1999.90;999.90;;;18.70;99.90;;;;;;5095159;28;20691;-82
2022/06/27 06:15:03;;;;;;;1999.90;999.90;;;18.90;99.90;;;;;;5057203;28;20097;-84
2022/06/27 06:17:31;;;;;;;1999.90;999.90;;;18.90;99.90;;;;;;5094064;28;20028;-82
2022/06/27 06:19:56;;;;;;;1999.90;999.90;;;18.90;99.90;;;;;;5073644;28;20028;-89
2022/06/27 06:22:22;;;;;;;1999.90;999.90;;;18.90;99.90;;;;;;5069304;28;20513;-83
2022/06/27 06:24:49;;;;;;;1999.90;999.90;;;18.80;99.90;;;;;;5070459;28;20479;-84
2022/06/27 06:27:16;;;;;;;1999.90;999.90;;;18.70;99.90;;;;;;5084906;28;20655;-82
2022/06/27 06:29:42;;;;;;;1999.90;999.90;;;18.70;99.90;;;;;;5099642;28;20095;-82
2022/06/27 06:32:08;;;;;;;1999.90;999.90;;;18.70;99.90;;;;;;5098270;28;20123;-83
2022/06/27 06:34:35;;;;;;;1999.90;999.90;;;19.00;99.90;;;;;;5085910;28;20084;-91
2022/06/27 06:37:01;;;;;;;1999.90;999.90;;;19.10;99.90;;;;;;5085421;28;20611;-95
2022/06/27 06:39:27;;;;;;;1999.90;999.90;;;19.20;99.90;;;;;;5081089;28;20051;-94
2022/06/27 06:41:54;;;;;;;1999.90;999.90;;;19.10;99.90;;;;;;5100306;28;20539;-94
2022/06/27 06:44:20;;;;;;;1999.90;999.90;;;19.10;99.90;;;;;;5099189;28;20031;-95
2022/06/27 06:46:46;;;;;;;1999.90;999.90;;;19.10;99.90;;;;;;5102813;28;20048;-94
2022/06/27 06:49:12;;;;;;;1999.90;999.90;;;19.20;99.90;;;;;;5089748;28;20066;-82
2022/06/27 06:51:39;;;;;;;1999.90;999.90;;;19.30;99.90;;;;;;5086242;28;20020;-84
2022/06/27 06:54:06;;;;;;;1999.90;999.90;;;19.30;99.90;;;;;;5075873;28;20027;-83
2022/06/27 06:56:33;;;;;;;1999.90;999.90;;;19.40;99.90;;;;;;5065921;28;20036;-84
2022/06/27 06:59:03;;;;;;;1999.90;999.90;;;19.30;99.90;;;;;;5101217;28;20080;-84
2022/06/27 07:01:33;;;;;;;1999.90;999.90;;;19.40;99.90;;;;;;5099245;28;20069;-84
2022/06/27 07:03:59;;;;;;;1999.90;999.90;;;19.40;99.90;;;;;;5082282;28;20016;-83
2022/06/27 07:06:25;;;;;;;1999.90;999.90;;;19.60;99.90;;;;;;5074439;28;20040;-83
2022/06/27 07:08:57;;;;;;;1999.90;999.90;;;19.60;99.90;;;;;;5083189;28;20080;-82
2022/06/27 07:11:23;;;;;;;1999.90;999.90;;;19.60;99.90;;;;;;5072689;28;20247;-84
2022/06/27 07:13:53;;;;;;;1999.90;999.90;;;19.60;99.90;;;;;;5097680;28;20030;-83
2022/06/27 07:16:20;;;;;;;;;;;19.90;99.90;;;;;;5089875;28;20035;-85
2022/06/27 07:18:46;;;;;;;1999.90;999.90;;;19.90;99.90;;;;;;5068544;28;19911;-83
2022/06/27 07:21:15;;;;;;;1999.90;999.90;;;20.00;99.90;;;;;;5073203;28;20035;-82
2022/06/27 07:23:41;;;;;;;1999.90;999.90;;;20.00;99.90;;;;;;5067236;28;20040;-82
2022/06/27 07:26:06;;;;;;;1999.90;999.90;;;20.20;99.90;;;;;;5088303;28;20039;-82
2022/06/27 07:28:32;;;;;;;1999.90;999.90;;;20.30;99.90;;;;;;5079081;28;20035;-82
2022/06/27 07:30:59;;;;;;;1999.90;999.90;;;20.40;99.90;;;;;;5101135;28;20035;-81
2022/06/27 07:33:25;;;;;;;1999.90;999.90;;;20.40;99.90;;;;;;5098251;28;20479;-84
2022/06/27 07:35:51;;;;;;;1999.90;999.90;;;20.50;99.90;;;;;;5072939;28;20162;-82
2022/06/27 07:38:16;;;;;;;1999.90;999.90;;;20.40;99.90;;;;;;5081241;28;20448;-81
2022/06/27 07:40:42;;;;;;;1999.90;999.90;;;20.50;99.90;;;;;;5078649;28;20036;-81
2022/06/27 07:43:10;;;;;;;1999.90;999.90;;;20.60;99.90;;;;;;5097252;28;20024;-81
2022/06/27 07:45:38;;;;;;;1999.90;999.90;;;20.50;99.90;;;;;;5072603;28;20102;-85
2022/06/27 07:48:05;;;;;;;1999.90;999.90;;;20.80;99.90;;;;;;5076097;28;20028;-82
2022/06/27 07:50:37;;;;;;;1999.90;999.90;;;21.00;99.90;;;;;;5091343;28;20044;-84
2022/06/27 07:53:13;;;;;;;1999.90;999.90;;;21.20;99.90;;;;;;5088346;28;20049;-84
2022/06/27 07:55:50;;;;;;;1999.90;999.90;;;21.40;99.90;;;;;;5083600;28;20055;-84
2022/06/27 07:58:17;;;;;;;1999.90;999.90;;;21.00;99.90;;;;;;5099574;28;20028;-86
2022/06/27 08:00:45;;;;;;;1999.90;999.90;;;21.20;99.90;;;;;;5097628;28;20050;-83
2022/06/27 08:05:57;;;;;;;1999.90;999.90;;;21.10;99.90;;;;;;5092905;28;20038;-83
2022/06/27 08:08:23;;;;;;;1999.90;999.90;;;21.00;99.90;;;;;;5059430;28;20482;-83
2022/06/27 08:10:50;;;;;;;1999.90;999.90;;;21.00;99.90;;;;;;5096774;28;20031;-82
2022/06/27 08:13:16;;;;;;;1999.90;999.90;;;21.50;99.90;;;;;;5092302;28;20019;-83
2022/06/27 08:15:42;;;;;;;1999.90;999.90;;;21.30;98.60;;;;;;5074015;28;20035;-83
2022/06/27 08:18:08;;;;;;;1999.90;999.90;;;21.40;94.80;;;;;;5091506;28;20024;-83
2022/06/27 08:20:37;;;;;;;1999.90;999.90;;;21.60;99.90;;;;;;5076239;28;20024;-82
2022/06/27 08:23:03;;;;;;;1999.90;999.90;;;21.90;99.90;;;;;;5070709;28;20035;-86
2022/06/27 08:25:30;;;;;;;1999.90;999.90;;;22.20;94.50;;;;;;5087269;28;20103;-83
2022/06/27 08:27:56;;;;;;;1999.90;999.90;;;22.10;96.50;;;;;;5093017;28;20111;-83
2022/06/27 08:30:25;;;;;;;1999.90;999.90;;;22.20;94.20;;;;;;5091721;28;20024;-83
2022/06/27 08:32:55;;;;;;;1999.90;999.90;;;22.30;99.90;;;;;;5073732;28;20115;-84
2022/06/27 08:35:24;;;;;;;1999.90;999.90;;;22.60;99.90;;;;;;5091903;28;20501;-83
2022/06/27 08:37:50;;;;;;;1999.90;999.90;;;22.30;90.10;;;;;;5094619;28;20057;-83
2022/06/27 08:40:17;;;;;;;1999.90;999.90;;;22.60;91.80;;;;;;5076050;28;20230;-82
2022/06/27 08:42:44;;;;;;;1999.90;999.90;;;22.80;85.40;;;;;;5080497;28;20024;-83
2022/06/27 08:45:13;;;;;;;1999.90;999.90;;;23.00;86.80;;;;;;5093818;28;20024;-84
2022/06/27 08:47:39;;;;;;;1999.90;999.90;;;23.60;92.90;;;;;;5089060;28;20020;-88
2022/06/27 08:50:07;;;;;;;1999.90;999.90;;;24.30;80.70;;;;;;5073523;28;20117;-86
2022/06/27 08:52:34;;;;;;;1999.90;999.90;;;24.60;80.50;;;;;;5067481;28;20063;-89
2022/06/27 08:55:01;;;;;;;1999.90;999.90;;;24.70;76.90;;;;;;5090293;28;20043;-88
2022/06/27 08:57:27;;;;;;;1999.90;999.90;;;24.70;76.90;;;;;;5096590;28;20490;-91
2022/06/27 08:59:53;;;;;;;1999.90;999.90;;;24.70;74.30;;;;;;5077409;28;20059;-86
2022/06/27 09:02:23;;;;;;;1999.90;999.90;;;24.70;75.60;;;;;;5084903;28;20040;-86
2022/06/27 09:04:58;;;;;;;1999.90;999.90;;;25.00;75.80;;;;;;5083681;28;20163;-91
2022/06/27 09:07:45;;;;;;;1999.90;999.90;;;24.80;76.30;;;;;;5087376;28;20371;-94
2022/06/27 09:10:30;;;;;;;1999.90;999.90;;;24.60;73.20;;;;;;5097796;28;20024;-88
2022/06/27 09:13:12;;;;;;;1999.90;999.90;;;24.70;76.20;;;;;;5090082;28;20118;-91
2022/06/27 09:15:51;;;;;;;1999.90;999.90;;;24.80;76.30;;;;;;5090163;28;20039;-86
2022/06/27 09:18:23;;;;;;;1999.90;999.90;;;24.70;73.00;;;;;;5075607;28;20105;-87
2022/06/27 09:21:05;;;;;;;1999.90;999.90;;;24.80;75.50;;;;;;5072174;28;20288;-89
2022/06/27 09:23:50;;;;;;;1999.90;999.90;;;24.40;77.10;;;;;;5074215;28;20090;-85
2022/06/27 09:26:22;;;;;;;1999.90;999.90;;;25.00;72.80;;;;;;5072196;28;20423;-84
2022/06/27 09:28:54;;;;;;;1999.90;999.90;;;25.00;68.80;;;;;;5095960;28;20024;-85
2022/06/27 09:31:25;;;;;;;1999.90;999.90;;;24.80;69.50;;;;;;5095752;28;20031;-87
2022/06/27 09:34:08;;;;;;;1999.90;999.90;;;25.00;65.20;;;;;;5101076;28;20146;-86
2022/06/27 09:36:36;;;;;;;1999.90;999.90;;;25.00;65.30;;;;;;5077971;28;20372;-85
2022/06/27 09:39:03;;;;;;;1999.90;999.90;;;25.20;64.80;;;;;;5052482;28;20480;-85
2022/06/27 09:41:30;;;;;;;1999.90;999.90;;;25.80;65.00;;;;;;5090533;28;20043;-86
2022/06/27 09:44:10;;;;;;;1808.85;593.85;;;25.60;62.00;;;;;;5081852;28;20019;-84
2022/06/27 09:46:43;;;;;;;1999.90;999.90;;;25.80;61.60;;;;;;5091629;28;20046;-84
2022/06/27 09:49:14;;;;;;;1999.90;999.90;;;25.60;60.80;;;;;;5075120;28;20060;-86
2022/06/27 09:51:40;;;;;;;1999.90;999.90;;;25.40;65.10;;;;;;5094583;28;20708;-85
2022/06/27 09:54:11;;;;;;;1999.90;999.90;;;26.10;59.70;;;;;;5081874;28;20101;-87
2022/06/27 09:56:42;;;;;;;1999.90;703.45;;;26.40;63.70;;;;;;5076519;28;20032;-84
2022/06/27 09:59:09;;;;;;;1999.90;999.90;;;26.80;58.60;;;;;;5083414;28;20580;-85
2022/06/27 10:01:35;;;;;;;1999.90;999.90;;;26.40;56.90;;;;;;5079335;28;20362;-85
2022/06/27 10:04:07;;;;;;;1999.90;999.90;;;26.10;59.80;;;;;;5103083;28;20339;-86
2022/06/27 10:06:35;;;;;;;1999.90;999.90;;;25.60;60.30;;;;;;5078667;28;20072;-84
2022/06/27 10:09:04;;;;;;;1999.90;999.90;;;26.10;60.40;;;;;;5053283;28;20565;-86
2022/06/27 10:11:30;;;;;;;1999.90;999.90;;;26.60;60.10;;;;;;5058288;28;20506;-84
2022/06/27 10:14:22;;;;;;;1967.13;599.60;;;27.10;59.90;;;;;;5095458;28;20054;-88
2022/06/27 10:16:59;;;;;;;1999.90;999.90;;;25.90;60.00;;;;;;5069217;28;20734;-85
2022/06/27 10:19:31;;;;;;;1999.90;999.90;;;26.00;58.70;;;;;;5052270;28;20036;-85
2022/06/27 10:21:57;;;;;;;1794.30;578.78;;;26.50;58.00;;;;;;5072163;28;20145;-86
2022/06/27 10:24:25;;;;;;;1999.90;999.90;;;26.50;57.90;;;;;;5087540;28;20479;-85
2022/06/27 10:26:56;;;;;;;1999.90;999.90;;;27.10;54.30;;;;;;5081645;28;20097;-87
2022/06/27 10:29:39;;;;;;;1999.90;288.92;;;27.80;52.40;;;;;;5058216;28;20508;-85
2022/06/27 10:32:07;;;;;;;1999.90;999.90;;;27.90;52.30;;;;;;5095236;28;20040;-85
2022/06/27 10:34:46;;;;;;;1999.90;757.45;;;27.70;54.50;;;;;;5081954;28;20031;-85
2022/06/27 10:37:42;;;;;;;1999.90;999.90;;;27.50;53.30;;;;;;5096114;28;20101;-85
2022/06/27 10:40:20;;;;;;;1999.90;835.83;;;27.30;52.70;;;;;;5094375;28;20024;-85
2022/06/27 10:42:49;;;;;;;1999.90;999.90;;;27.10;53.60;;;;;;5074028;28;20032;-87
2022/06/27 10:45:21;;;;;;;1999.90;999.90;;;26.70;54.60;;;;;;5097385;28;20016;-86
2022/06/27 10:47:56;;;;;;;1999.90;999.90;;;26.20;56.00;;;;;;5074284;28;20023;-86
2022/06/27 10:50:23;;;;;;;1999.90;677.80;;;26.00;57.20;;;;;;5051307;28;20105;-85
2022/06/27 10:52:49;;;;;;;1999.90;687.42;;;26.10;58.10;;;;;;5076428;28;20024;-88
2022/06/27 10:55:29;;;;;;;1999.90;851.92;;;27.10;54.60;;;;;;5064599;28;20039;-85
2022/06/27 10:57:56;;;;;;;1999.90;859.20;;;27.60;54.00;;;;;;5058722;28;20645;-84
2022/06/27 11:00:38;;;;;;;1999.90;811.15;;;27.50;51.80;;;;;;5073293;28;20124;-86
2022/06/27 11:03:05;;;;;;;1999.90;960.47;;;28.10;52.90;;;;;;5083601;28;20103;-84
2022/06/27 11:05:58;;;;;;;1999.90;890.22;;;28.80;48.60;;;;;;5058815;28;20029;-87
2022/06/27 11:08:23;;;;;;;1999.90;964.55;;;29.20;44.40;;;;;;5067201;28;20080;-86
2022/06/27 11:10:51;;;;;;;1999.90;931.65;;;29.60;43.60;;;;;;5083115;28;20032;-84
2022/06/27 11:13:38;;;;;;;1999.90;999.90;;;29.90;42.60;;;;;;5067275;28;20020;-85
2022/06/27 11:16:04;;;;;;;1999.90;999.90;;;28.10;46.60;;;;;;5068120;28;20024;-87
2022/06/27 11:18:50;;;;;;;1999.90;987.90;;;27.50;47.60;;;;;;5091181;28;20027;-86
2022/06/27 11:21:27;;;;;;;1999.90;999.90;;;28.90;46.40;;;;;;5087015;28;20028;-83
2022/06/27 11:23:59;;;;;;;1999.90;999.90;;;29.30;44.80;;;;;;5068078;28;20222;-84
2022/06/27 11:26:33;;;;;;;1999.90;999.90;;;28.20;45.50;;;;;;5072570;28;20015;-85
2022/06/27 11:32:05;;;;;;;1999.90;999.30;;;27.60;49.20;;;;;;5086597;28;20055;-85
2022/06/27 11:34:36;;;;;;;1999.90;999.90;;;27.70;49.40;;;;;;5065431;28;20035;-85
2022/06/27 11:37:16;;;;;;;1999.90;899.50;;;28.50;46.00;;;;;;5092828;28;20046;-84
2022/06/27 11:39:55;;;;;;;1999.90;828.75;;;28.60;48.10;;;;;;5040130;28;20119;-84
2022/06/27 11:42:39;;;;;;;1999.90;914.30;;;28.60;45.50;;;;;;5090024;28;20031;-85
2022/06/27 11:45:13;;;;;;;1999.90;999.90;;;29.30;43.40;;;;;;5085802;28;20347;-85
2022/06/27 11:47:42;;;;;;;1999.90;999.90;;;30.10;42.00;;;;;;5088693;28;20024;-81
2022/06/27 11:50:16;;;;;;;1999.90;999.90;;;31.00;43.10;;;;;;5066299;28;20036;-86
2022/06/27 11:52:44;;;;;;;1999.90;999.90;;;31.10;38.70;;;;;;5054235;28;20036;-83
2022/06/27 11:55:15;;;;;;;1999.90;999.90;;;30.10;40.60;;;;;;5091422;28;20016;-83
2022/06/27 11:57:48;;;;;;;1999.90;999.90;;;30.40;40.70;;;;;;5083174;28;20031;-82
2022/06/27 12:00:19;;;;;;;1999.90;999.90;;;31.60;39.60;;;;;;5074745;28;20048;-83
2022/06/27 12:02:44;;;;;;;1999.90;999.90;;;32.80;36.80;;;;;;5096892;28;20059;-83
2022/06/27 12:05:20;;;;;;;1999.90;999.90;;;34.20;34.50;;;;;;5078453;28;20049;-83
2022/06/27 12:08:06;;;;;;;1999.90;999.90;;;32.60;34.20;;;;;;5090346;28;20051;-84
2022/06/27 12:10:45;;;;;;;1999.90;999.90;;;30.80;39.00;;;;;;5092572;28;20016;-84
2022/06/27 12:13:14;;;;;;;1999.90;999.90;;;29.00;41.40;;;;;;5069880;28;20185;-87